Time;durP1;ratioP1;P1;durP2;ratioP2;P2;SDS_P1;SDS_P2;PMS_P1;PMS_P2;Temp;Humidity;BMP_temperature;BMP_pressure;BME280_temperature;BME280_humidity;BME280_pressure;Samples;Min_cycle;Max_cycle;Signal;HPM_P1;HPM_P2
2022/10/17 00:01:15;;;;;;;7.75;5.53;;;;;;;;;;5031681;28;20434;-76
2022/10/17 00:03:44;;;;;;;6.57;5.85;;;;;;;;;;5014426;28;20116;-78
2022/10/17 00:06:12;;;;;;;7.15;4.88;;;;;;;;;;5031979;28;20025;-78
2022/10/17 00:08:39;;;;;;;8.80;6.07;;;;;;;;;;5031563;28;20398;-78
2022/10/17 00:11:07;;;;;;;11.50;6.00;;;;;;;;;;5032090;28;20049;-78
2022/10/17 00:13:33;;;;;;;10.52;6.20;;;;;;;;;;5014555;28;20032;-79
2022/10/17 00:16:00;;;;;;;14.30;6.13;;;;;;;;;;5034384;28;20479;-79
2022/10/17 00:18:26;;;;;;;8.55;5.95;;;;;;;;;;5037582;28;20047;-78
2022/10/17 00:20:52;;;;;;;9.93;6.00;;;;;;;;;;5019452;28;20510;-76
2022/10/17 00:23:18;;;;;;;11.68;5.90;;;;;;;;;;5036399;28;20017;-77
2022/10/17 00:25:44;;;;;;;8.50;6.68;;;;;;;;;;5015936;28;20025;-77
2022/10/17 00:28:14;;;;;;;11.88;6.70;;;;;;;;;;5017217;28;20029;-78
2022/10/17 00:30:40;;;;;;;12.18;6.97;;;;;;;;;;5031534;28;20100;-78
2022/10/17 00:33:06;;;;;;;11.98;7.00;;;;;;;;;;5031398;28;20076;-78
2022/10/17 00:35:32;;;;;;;11.43;7.15;;;;;;;;;;5031496;28;20052;-78
2022/10/17 00:37:58;;;;;;;9.80;7.60;;;;;;;;;;5031206;28;20036;-78
2022/10/17 00:40:24;;;;;;;10.55;7.40;;;;;;;;;;5031559;28;20026;-78
2022/10/17 00:42:52;;;;;;;13.30;8.13;;;;;;;;;;5031660;28;20108;-78
2022/10/17 00:45:21;;;;;;;12.23;8.32;;;;;;;;;;5031631;28;20020;-78
2022/10/17 00:47:49;;;;;;;13.02;9.48;;;;;;;;;;5031198;28;20064;-78
2022/10/17 00:50:16;;;;;;;12.07;8.07;;;;;;;;;;5031529;28;20017;-78
2022/10/17 00:52:42;;;;;;;11.68;8.27;;;;;;;;;;5032576;28;20083;-78
2022/10/17 00:55:11;;;;;;;10.50;7.72;;;;;;;;;;5017871;28;20021;-78
2022/10/17 00:57:38;;;;;;;10.32;8.20;;;;;;;;;;5035777;28;20034;-77
2022/10/17 01:00:06;;;;;;;14.60;8.45;;;;;;;;;;5036095;28;20025;-77
2022/10/17 01:02:32;;;;;;;16.25;9.63;;;;;;;;;;5036766;28;20104;-78
2022/10/17 01:04:58;;;;;;;14.68;10.63;;;;;;;;;;5036362;28;20041;-78
2022/10/17 01:07:26;;;;;;;17.67;12.68;;;;;;;;;;5036268;28;20056;-78
2022/10/17 01:09:52;;;;;;;22.83;12.07;;;;;;;;;;5036283;28;20018;-79
2022/10/17 01:12:26;;;;;;;25.23;14.32;;;;;;;;;;5018797;28;20495;-78
2022/10/17 01:15:10;;;;;;;22.45;13.35;;;;;;;;;;5036642;28;20029;-78
2022/10/17 01:17:48;;;;;;;24.77;15.45;;;;;;;;;;5018540;28;20092;-78
2022/10/17 01:20:23;;;;;;;26.17;14.98;;;;;;;;;;5037231;28;20033;-77
2022/10/17 01:22:49;;;;;;;29.92;17.52;;;;;;;;;;5039771;28;20048;-77
2022/10/17 01:25:18;;;;;;;35.15;17.10;;;;;;;;;;5038737;28;20018;-78
2022/10/17 01:28:09;;;;;;;30.40;18.10;;;;;;;;;;5042717;28;20048;-78
2022/10/17 01:30:54;;;;;;;34.47;18.02;;;;;;;;;;5046669;28;20021;-78
2022/10/17 01:33:20;;;;;;;30.92;18.85;;;;;;;;;;5047631;28;20036;-79
2022/10/17 01:35:55;;;;;;;26.10;17.38;;;;;;;;;;5029676;28;20030;-77
2022/10/17 01:38:31;;;;;;;32.42;19.10;;;;;;;;;;5044767;28;20049;-79
2022/10/17 01:41:06;;;;;;;25.90;17.48;;;;;;;;;;5034938;28;20029;-78
2022/10/17 01:43:34;;;;;;;30.98;20.27;;;;;;;;;;5049262;28;20029;-78
2022/10/17 01:46:12;;;;;;;34.63;21.10;;;;;;;;;;5050445;28;20025;-78
2022/10/17 01:48:40;;;;;;;28.83;19.65;;;;;;;;;;5055628;28;20073;-78
2022/10/17 01:51:12;;;;;;;33.33;20.55;;;;;;;;;;5055175;28;20082;-79
2022/10/17 01:53:46;;;;;;;40.00;21.92;;;;;;;;;;5036244;28;20033;-78
2022/10/17 01:56:14;;;;;;;31.50;20.65;;;;;;;;;;5017029;28;20092;-77
2022/10/17 01:58:42;;;;;;;34.97;21.30;;;;;;;;;;5034038;28;20115;-78
2022/10/17 02:01:10;;;;;;;37.25;22.17;;;;;;;;;;5034624;28;20033;-78
2022/10/17 02:03:37;;;;;;;41.53;23.10;;;;;;;;;;5033604;28;20397;-79
2022/10/17 02:06:04;;;;;;;34.00;21.45;;;;;;;;;;5034526;28;20026;-78
2022/10/17 02:08:44;;;;;;;30.58;20.70;;;;;;;;;;5034675;28;20026;-78
2022/10/17 02:11:17;;;;;;;34.97;22.30;;;;;;;;;;5017740;28;20072;-79
2022/10/17 02:13:55;;;;;;;33.03;21.83;;;;;;;;;;5034952;28;20083;-77
2022/10/17 02:16:28;;;;;;;35.00;21.30;;;;;;;;;;5033765;28;20372;-77
2022/10/17 02:18:59;;;;;;;30.20;20.75;;;;;;;;;;5033639;28;20080;-77
2022/10/17 02:21:33;;;;;;;30.67;20.77;;;;;;;;;;5016006;28;20029;-78
2022/10/17 02:24:05;;;;;;;36.85;21.88;;;;;;;;;;5034083;28;20029;-78
2022/10/17 02:26:39;;;;;;;34.17;21.00;;;;;;;;;;5033386;28;20026;-78
2022/10/17 02:29:16;;;;;;;36.05;22.15;;;;;;;;;;5035110;28;20029;-79
2022/10/17 02:31:51;;;;;;;37.30;23.45;;;;;;;;;;5033360;28;20045;-78
2022/10/17 02:34:17;;;;;;;37.80;22.52;;;;;;;;;;5033394;28;20037;-79
2022/10/17 02:36:46;;;;;;;35.45;21.63;;;;;;;;;;5015389;28;20403;-78
2022/10/17 02:39:13;;;;;;;32.17;21.85;;;;;;;;;;5032920;28;20026;-79
2022/10/17 02:41:39;;;;;;;32.47;20.65;;;;;;;;;;5033060;28;20045;-77
2022/10/17 02:44:06;;;;;;;31.38;20.65;;;;;;;;;;5033417;28;20571;-77
2022/10/17 02:46:33;;;;;;;37.90;23.50;;;;;;;;;;5033498;28;20033;-77
2022/10/17 02:49:05;;;;;;;32.70;21.02;;;;;;;;;;5015294;28;20060;-78
2022/10/17 02:51:40;;;;;;;30.77;20.08;;;;;;;;;;5033533;28;20029;-77
2022/10/17 02:54:20;;;;;;;34.75;21.63;;;;;;;;;;5033401;28;20411;-77
2022/10/17 02:59:19;;;;;;;42.15;24.23;;;;;;;;;;5065173;23;20075;-78
2022/10/17 03:01:46;;;;;;;38.90;22.00;;;;;;;;;;5052109;28;20490;-78
2022/10/17 03:04:13;;;;;;;49.78;26.45;;;;;;;;;;5040852;28;20460;-78
2022/10/17 03:06:40;;;;;;;35.47;22.77;;;;;;;;;;5032635;28;20028;-76
2022/10/17 03:09:06;;;;;;;35.03;21.60;;;;;;;;;;5042373;28;20083;-74
2022/10/17 03:11:32;;;;;;;40.35;24.33;;;;;;;;;;5052612;28;20100;-77
2022/10/17 03:13:58;;;;;;;34.17;21.13;;;;;;;;;;5052577;28;20053;-77
2022/10/17 03:16:24;;;;;;;36.08;20.88;;;;;;;;;;5051531;28;20434;-77
2022/10/17 03:18:50;;;;;;;34.70;21.48;;;;;;;;;;5052248;28;20078;-77
2022/10/17 03:21:16;;;;;;;34.50;22.02;;;;;;;;;;5052141;28;20029;-77
2022/10/17 03:23:42;;;;;;;41.78;25.25;;;;;;;;;;5052458;28;20032;-77
2022/10/17 03:26:09;;;;;;;38.03;25.52;;;;;;;;;;5052114;28;20493;-76
2022/10/17 03:28:37;;;;;;;41.95;25.30;;;;;;;;;;5051643;28;20459;-75
2022/10/17 03:31:10;;;;;;;37.53;26.25;;;;;;;;;;5052190;28;20017;-75
2022/10/17 03:33:37;;;;;;;43.58;27.52;;;;;;;;;;5052075;28;20028;-76
2022/10/17 03:36:06;;;;;;;42.03;25.67;;;;;;;;;;5052136;28;20025;-76
2022/10/17 03:38:33;;;;;;;44.60;27.50;;;;;;;;;;5051427;28;20025;-76
2022/10/17 03:40:59;;;;;;;52.28;30.23;;;;;;;;;;5052116;28;20047;-76
2022/10/17 03:43:25;;;;;;;46.50;28.02;;;;;;;;;;5052136;28;20383;-77
2022/10/17 03:45:51;;;;;;;48.38;28.88;;;;;;;;;;5051945;28;20075;-76
2022/10/17 03:48:17;;;;;;;44.20;28.02;;;;;;;;;;5051511;28;20099;-76
2022/10/17 03:50:43;;;;;;;47.20;26.35;;;;;;;;;;5051912;28;20021;-76
2022/10/17 03:53:09;;;;;;;40.33;26.77;;;;;;;;;;5051728;28;20032;-77
2022/10/17 03:55:35;;;;;;;44.63;28.90;;;;;;;;;;5051755;28;20056;-78
2022/10/17 03:58:03;;;;;;;45.58;27.05;;;;;;;;;;5051090;28;20071;-78
2022/10/17 04:00:29;;;;;;;49.80;31.35;;;;;;;;;;5051596;28;20029;-78
2022/10/17 04:02:55;;;;;;;52.28;31.75;;;;;;;;;;5051424;28;20536;-77
2022/10/17 04:05:23;;;;;;;51.22;32.08;;;;;;;;;;5051749;28;20021;-77
2022/10/17 04:07:49;;;;;;;51.88;32.85;;;;;;;;;;5051760;28;20449;-76
2022/10/17 04:10:15;;;;;;;51.65;32.20;;;;;;;;;;5051248;28;20059;-77
2022/10/17 04:12:41;;;;;;;52.65;34.28;;;;;;;;;;5052017;28;20363;-77
2022/10/17 04:15:07;;;;;;;62.38;35.35;;;;;;;;;;5030587;28;20025;-76
2022/10/17 04:17:33;;;;;;;57.70;34.47;;;;;;;;;;5051188;28;20028;-76
2022/10/17 04:19:59;;;;;;;66.63;37.67;;;;;;;;;;5051293;28;20437;-77
2022/10/17 04:22:26;;;;;;;68.10;39.63;;;;;;;;;;5051348;28;20024;-76
2022/10/17 04:24:52;;;;;;;68.35;40.72;;;;;;;;;;5051065;28;20471;-77
2022/10/17 04:27:18;;;;;;;76.85;43.90;;;;;;;;;;5050961;28;20092;-76
2022/10/17 04:29:44;;;;;;;64.70;37.78;;;;;;;;;;5051062;28;20487;-79
2022/10/17 04:32:10;;;;;;;71.07;41.63;;;;;;;;;;5051365;28;20104;-76
2022/10/17 04:34:36;;;;;;;70.32;43.60;;;;;;;;;;5033005;28;20066;-76
2022/10/17 04:37:02;;;;;;;67.50;40.22;;;;;;;;;;5050843;28;20024;-77
2022/10/17 04:39:28;;;;;;;73.72;41.95;;;;;;;;;;5051081;28;20033;-75
2022/10/17 04:41:55;;;;;;;61.50;39.13;;;;;;;;;;5050962;28;20092;-76
2022/10/17 04:44:21;;;;;;;68.20;41.42;;;;;;;;;;5051179;28;20025;-77
2022/10/17 04:46:47;;;;;;;66.95;40.80;;;;;;;;;;5050882;28;20150;-77
2022/10/17 04:49:13;;;;;;;69.75;42.38;;;;;;;;;;5050863;28;20063;-76
2022/10/17 04:51:39;;;;;;;70.05;42.22;;;;;;;;;;5029722;28;20018;-76
2022/10/17 04:54:05;;;;;;;77.97;44.60;;;;;;;;;;5047940;28;20479;-77
2022/10/17 04:56:31;;;;;;;74.82;44.15;;;;;;;;;;5050590;28;20025;-77
2022/10/17 04:58:58;;;;;;;85.78;46.97;;;;;;;;;;5032609;28;20107;-77
2022/10/17 05:01:24;;;;;;;75.93;43.30;;;;;;;;;;5051052;28;20512;-76
2022/10/17 05:03:51;;;;;;;66.70;41.92;;;;;;;;;;5050982;28;20033;-76
2022/10/17 05:06:18;;;;;;;82.13;46.70;;;;;;;;;;5050607;28;20121;-76
2022/10/17 05:08:44;;;;;;;67.97;42.45;;;;;;;;;;5050540;28;20024;-76
2022/10/17 05:11:17;;;;;;;77.63;44.25;;;;;;;;;;5051037;28;20017;-77
2022/10/17 05:13:42;;;;;;;85.68;45.85;;;;;;;;;;5037644;28;20025;-76
2022/10/17 05:16:09;;;;;;;71.88;44.38;;;;;;;;;;5050941;28;20511;-77
2022/10/17 05:18:35;;;;;;;81.55;44.72;;;;;;;;;;5050069;28;20029;-76
2022/10/17 05:21:03;;;;;;;74.65;43.83;;;;;;;;;;5050879;28;20028;-77
2022/10/17 05:23:29;;;;;;;80.43;46.05;;;;;;;;;;5050200;28;20029;-77
2022/10/17 05:25:55;;;;;;;81.80;44.20;;;;;;;;;;5029576;28;20155;-77
2022/10/17 05:28:22;;;;;;;79.40;45.78;;;;;;;;;;5048916;28;20021;-77
2022/10/17 05:30:48;;;;;;;106.25;49.47;;;;;;;;;;5050706;28;20372;-76
2022/10/17 05:33:14;;;;;;;87.15;47.47;;;;;;;;;;5050005;28;20032;-75
2022/10/17 05:35:39;;;;;;;78.90;43.90;;;;;;;;;;5050358;28;20028;-75
2022/10/17 05:38:05;;;;;;;82.22;46.60;;;;;;;;;;5049937;28;20501;-76
2022/10/17 05:40:31;;;;;;;87.40;47.05;;;;;;;;;;5036244;28;20468;-77
2022/10/17 05:42:57;;;;;;;83.55;48.33;;;;;;;;;;5054063;28;20113;-77
2022/10/17 05:45:23;;;;;;;91.95;48.60;;;;;;;;;;5054611;28;20017;-76
2022/10/17 05:47:50;;;;;;;100.15;50.63;;;;;;;;;;5033088;28;20502;-75
2022/10/17 05:50:19;;;;;;;98.18;52.30;;;;;;;;;;5054106;28;20024;-75
2022/10/17 05:52:45;;;;;;;76.80;46.22;;;;;;;;;;5037239;28;20123;-75
2022/10/17 05:55:11;;;;;;;87.22;47.97;;;;;;;;;;5053737;28;20112;-75
2022/10/17 05:57:37;;;;;;;80.53;45.88;;;;;;;;;;5053512;28;20032;-76
2022/10/17 06:00:04;;;;;;;86.90;47.58;;;;;;;;;;5053824;28;20036;-76
2022/10/17 06:02:30;;;;;;;74.88;47.10;;;;;;;;;;5053777;28;20035;-75
2022/10/17 06:04:56;;;;;;;71.93;46.75;;;;;;;;;;5053757;28;20025;-73
2022/10/17 06:07:22;;;;;;;64.90;42.30;;;;;;;;;;5053593;28;20028;-75
2022/10/17 06:09:48;;;;;;;65.25;42.90;;;;;;;;;;5053833;28;20024;-75
2022/10/17 06:12:14;;;;;;;55.50;40.13;;;;;;;;;;5033878;28;20018;-76
2022/10/17 06:14:40;;;;;;;50.67;35.42;;;;;;;;;;5053580;28;20024;-76
2022/10/17 06:17:06;;;;;;;48.28;34.63;;;;;;;;;;5052963;28;20470;-72
2022/10/17 06:19:32;;;;;;;45.25;32.55;;;;;;;;;;5053994;28;20017;-75
2022/10/17 06:21:58;;;;;;;42.38;30.80;;;;;;;;;;5056413;28;20013;-80
2022/10/17 06:24:27;;;;;;;42.67;30.23;;;;;;;;;;5050645;28;20053;-82
2022/10/17 06:26:53;;;;;;;39.45;29.40;;;;;;;;;;5069535;28;20040;-78
2022/10/17 06:29:21;;;;;;;40.03;27.92;;;;;;;;;;5070335;28;20479;-82
2022/10/17 06:31:50;;;;;;;32.88;25.95;;;;;;;;;;5069197;28;20040;-80
2022/10/17 06:34:20;;;;;;;40.15;28.83;;;;;;;;;;5064977;28;20025;-78
2022/10/17 06:36:49;;;;;;;36.27;28.37;;;;;;;;;;5047034;28;20021;-81
2022/10/17 06:39:18;;;;;;;37.75;28.02;;;;;;;;;;5061639;28;20052;-81
2022/10/17 06:41:46;;;;;;;39.38;28.42;;;;;;;;;;5042921;28;20035;-81
2022/10/17 06:44:15;;;;;;;35.30;28.55;;;;;;;;;;5059094;28;20039;-81
2022/10/17 06:46:43;;;;;;;38.90;29.60;;;;;;;;;;5067019;28;20016;-81
2022/10/17 06:49:11;;;;;;;40.30;29.25;;;;;;;;;;5062385;28;20037;-81
2022/10/17 06:51:37;;;;;;;39.67;29.23;;;;;;;;;;5057611;28;20156;-82
2022/10/17 06:54:03;;;;;;;41.15;29.27;;;;;;;;;;5059255;28;20031;-80
2022/10/17 06:56:37;;;;;;;40.53;29.20;;;;;;;;;;5060342;28;20272;-82
2022/10/17 06:59:25;;;;;;;37.70;27.67;;;;;;;;;;5049956;22;20045;-82
2022/10/17 07:01:59;;;;;;;40.60;27.52;;;;;;;;;;5043259;28;20067;-80
2022/10/17 07:04:55;;;;;;;46.33;29.17;;;;;;;;;;5048603;28;20029;-82
2022/10/17 07:07:31;;;;;;;37.38;27.05;;;;;;;;;;5074963;23;21318;-81
2022/10/17 07:13:16;;;;;;;41.17;27.88;;;;;;;;;;5079305;28;20029;-81
2022/10/17 07:16:00;;;;;;;;;;;;;;;;;;;;;
2022/10/17 07:18:54;;;;;;;;;;;;;;;;;;;;;
2022/10/17 07:21:28;;;;;;;43.83;31.70;;;;;;;;;;5041733;28;20089;-82
2022/10/17 07:24:19;;;;;;;43.78;33.05;;;;;;;;;;5059123;28;20503;-82
2022/10/17 07:26:48;;;;;;;47.00;31.33;;;;;;;;;;5060949;28;20029;-82
2022/10/17 07:29:14;;;;;;;41.88;32.13;;;;;;;;;;5045015;28;20026;-81
2022/10/17 07:31:59;;;;;;;44.47;33.95;;;;;;;;;;5031444;28;20013;-81
2022/10/17 07:34:30;;;;;;;41.92;31.90;;;;;;;;;;5021436;28;20414;-80
2022/10/17 07:37:17;;;;;;;47.22;33.53;;;;;;;;;;5027799;28;20022;-80
2022/10/17 07:39:48;;;;;;;42.40;32.10;;;;;;;;;;5023453;28;20571;-81
2022/10/17 07:42:27;;;;;;;43.03;31.10;;;;;;;;;;5037569;28;20022;-80
2022/10/17 07:44:55;;;;;;;40.78;30.67;;;;;;;;;;5023093;28;20034;-80
2022/10/17 07:47:25;;;;;;;44.15;31.02;;;;;;;;;;5012375;28;20057;-80
2022/10/17 07:49:54;;;;;;;47.00;30.75;;;;;;;;;;5008635;28;20265;-83
2022/10/17 07:52:26;;;;;;;36.72;28.38;;;;;;;;;;5017531;28;20021;-81
2022/10/17 07:55:00;;;;;;;40.35;27.35;;;;;;;;;;5037016;28;20025;-82
2022/10/17 07:57:29;;;;;;;37.10;27.98;;;;;;;;;;5034741;28;20121;-85
2022/10/17 08:00:15;;;;;;;38.67;28.38;;;;;;;;;;5012638;28;20041;-82
2022/10/17 08:03:07;;;;;;;;;;;;;;;;;;;;;
2022/10/17 08:05:46;;;;;;;38.30;26.45;;;;;;;;;;5015433;28;20064;-83
2022/10/17 08:08:17;;;;;;;41.92;27.48;;;;;;;;;;5020990;28;20038;-82
2022/10/17 08:10:55;;;;;;;35.88;27.30;;;;;;;;;;5016149;28;20028;-83
2022/10/17 08:13:27;;;;;;;36.55;26.50;;;;;;;;;;5025032;28;20030;-83
2022/10/17 08:15:58;;;;;;;34.90;25.67;;;;;;;;;;5037154;28;20037;-82
2022/10/17 08:18:34;;;;;;;32.67;25.23;;;;;;;;;;5029098;28;20056;-83
2022/10/17 08:21:25;;;;;;;30.52;23.95;;;;;;;;;;5039858;28;20499;-84
2022/10/17 08:23:51;;;;;;;28.33;23.75;;;;;;;;;;5039397;28;20029;-85
2022/10/17 08:26:20;;;;;;;33.72;24.48;;;;;;;;;;5056002;28;20082;-83
2022/10/17 08:32:23;;;;;;;29.10;24.10;;;;;;;;;;5051986;28;20064;-83
2022/10/17 08:34:58;;;;;;;32.53;25.05;;;;;;;;;;5027345;28;20017;-84
2022/10/17 08:37:30;;;;;;;31.80;24.67;;;;;;;;;;5034074;28;20033;-84
2022/10/17 08:43:15;;;;;;;35.28;27.13;;;;;;;;;;5042021;28;20034;-80
2022/10/17 08:46:14;;;;;;;32.63;25.60;;;;;;;;;;5017817;28;20029;-85
2022/10/17 08:49:08;;;;;;;37.20;25.83;;;;;;;;;;5038196;28;20030;-82
2022/10/17 08:51:48;;;;;;;33.78;25.50;;;;;;;;;;5034705;28;20074;-82
2022/10/17 08:54:29;;;;;;;34.70;26.08;;;;;;;;;;5052886;28;20018;-83
2022/10/17 08:57:03;;;;;;;32.10;25.73;;;;;;;;;;5036133;28;20105;-84
2022/10/17 08:59:42;;;;;;;32.85;25.45;;;;;;;;;;5040857;28;20009;-82
2022/10/17 09:02:28;;;;;;;34.55;26.80;;;;;;;;;;5037882;28;20026;-80
2022/10/17 09:05:11;;;;;;;34.08;26.35;;;;;;;;;;5043300;28;20056;-80
2022/10/17 09:07:51;;;;;;;32.13;25.40;;;;;;;;;;5017471;28;20033;-82
2022/10/17 09:10:50;;;;;;;34.50;25.17;;;;;;;;;;5023268;28;20039;-83
2022/10/17 09:13:19;;;;;;;32.28;25.77;;;;;;;;;;5020102;28;20014;-83
2022/10/17 09:16:06;;;;;;;38.25;27.23;;;;;;;;;;5029897;28;20037;-83
2022/10/17 09:18:56;;;;;;;32.78;23.52;;;;;;;;;;5053371;28;20016;-84
2022/10/17 09:21:34;;;;;;;30.85;25.08;;;;;;;;;;5041075;28;20042;-82
2022/10/17 09:24:26;;;;;;;30.77;24.02;;;;;;;;;;5028506;28;20036;-80
2022/10/17 09:30:35;;;;;;;31.27;24.25;;;;;;;;;;5036135;28;20026;-79
2022/10/17 09:33:29;;;;;;;30.90;24.58;;;;;;;;;;4954472;28;20496;-81
2022/10/17 09:36:04;;;;;;;31.90;24.92;;;;;;;;;;5014104;28;20462;-80
2022/10/17 09:38:36;;;;;;;32.83;25.85;;;;;;;;;;5025729;28;20124;-82
2022/10/17 09:41:19;;;;;;;32.78;25.45;;;;;;;;;;5032780;28;20029;-83
2022/10/17 09:43:48;;;;;;;29.95;23.73;;;;;;;;;;5026319;28;20026;-82
2022/10/17 09:46:18;;;;;;;31.45;23.55;;;;;;;;;;5032895;28;20010;-84
2022/10/17 09:48:45;;;;;;;34.27;24.30;;;;;;;;;;5032750;28;20022;-81
2022/10/17 09:51:14;;;;;;;35.13;26.13;;;;;;;;;;5025868;28;20033;-81
2022/10/17 09:53:41;;;;;;;37.75;26.98;;;;;;;;;;5044113;28;20026;-82
2022/10/17 09:56:14;;;;;;;33.85;25.58;;;;;;;;;;5030133;28;20056;-80
2022/10/17 09:58:42;;;;;;;33.80;26.25;;;;;;;;;;5023431;28;20057;-79
2022/10/17 10:01:18;;;;;;;34.80;25.70;;;;;;;;;;5040113;28;20033;-81
2022/10/17 10:03:44;;;;;;;30.38;25.05;;;;;;;;;;5012351;28;20084;-80
2022/10/17 10:06:20;;;;;;;34.75;26.42;;;;;;;;;;5020401;28;20040;-79
2022/10/17 10:08:49;;;;;;;33.13;25.75;;;;;;;;;;5028990;28;20085;-77
2022/10/17 10:11:21;;;;;;;32.53;23.75;;;;;;;;;;5036797;28;20037;-83
2022/10/17 10:13:48;;;;;;;30.30;22.45;;;;;;;;;;5041778;28;20028;-81
2022/10/17 10:16:23;;;;;;;30.80;23.35;;;;;;;;;;5024257;28;20017;-82
2022/10/17 10:18:49;;;;;;;29.77;22.58;;;;;;;;;;5032216;28;20022;-78
2022/10/17 10:21:22;;;;;;;26.15;23.25;;;;;;;;;;5030803;28;20026;-81
2022/10/17 10:23:57;;;;;;;29.98;22.60;;;;;;;;;;5032631;28;20037;-79
2022/10/17 10:26:32;;;;;;;26.05;20.67;;;;;;;;;;5044481;28;20022;-81
2022/10/17 10:29:02;;;;;;;35.85;21.88;;;;;;;;;;5033821;28;20025;-81
2022/10/17 10:31:37;;;;;;;27.37;21.90;;;;;;;;;;5017755;28;20042;-79
2022/10/17 10:34:14;;;;;;;29.17;22.65;;;;;;;;;;5027745;28;20484;-80
2022/10/17 10:36:44;;;;;;;29.38;21.73;;;;;;;;;;5021783;28;20025;-79
2022/10/17 10:39:17;;;;;;;31.48;23.23;;;;;;;;;;5034029;28;20086;-80
2022/10/17 10:41:52;;;;;;;28.88;21.23;;;;;;;;;;5035192;28;20029;-80
2022/10/17 10:44:21;;;;;;;25.05;19.20;;;;;;;;;;5024152;28;20029;-81
2022/10/17 10:46:53;;;;;;;27.63;20.13;;;;;;;;;;5018199;28;20109;-80
2022/10/17 10:49:32;;;;;;;23.33;18.83;;;;;;;;;;5027219;28;20014;-80
2022/10/17 10:51:59;;;;;;;28.23;20.00;;;;;;;;;;5027328;28;20546;-79
2022/10/17 10:54:42;;;;;;;23.13;18.40;;;;;;;;;;5027582;28;20476;-80
2022/10/17 10:57:10;;;;;;;24.10;18.42;;;;;;;;;;5025778;28;20121;-78
2022/10/17 10:59:42;;;;;;;22.45;18.40;;;;;;;;;;5046510;28;20012;-82
2022/10/17 11:02:24;;;;;;;23.58;19.15;;;;;;;;;;5026936;28;20009;-81
2022/10/17 11:05:02;;;;;;;23.08;18.15;;;;;;;;;;5029301;28;20520;-79
2022/10/17 11:07:33;;;;;;;23.00;18.10;;;;;;;;;;5010912;28;20033;-79
2022/10/17 11:10:21;;;;;;;23.55;18.40;;;;;;;;;;5017839;28;20030;-81
2022/10/17 11:13:06;;;;;;;24.60;18.50;;;;;;;;;;5017928;28;20033;-81
2022/10/17 11:15:44;;;;;;;20.27;17.08;;;;;;;;;;5023012;28;20026;-80
2022/10/17 11:18:22;;;;;;;21.92;17.85;;;;;;;;;;5017986;28;20553;-78
2022/10/17 11:20:57;;;;;;;23.38;18.27;;;;;;;;;;5015992;28;20589;-78
2022/10/17 11:23:41;;;;;;;28.17;19.13;;;;;;;;;;5026915;28;20108;-78
2022/10/17 11:26:14;;;;;;;23.35;18.30;;;;;;;;;;5022858;28;20507;-79
2022/10/17 11:28:40;;;;;;;24.77;18.70;;;;;;;;;;5031324;28;20025;-79
2022/10/17 11:31:08;;;;;;;26.38;18.02;;;;;;;;;;5022434;28;20026;-79
2022/10/17 11:33:34;;;;;;;21.17;17.63;;;;;;;;;;5015476;28;20113;-78
2022/10/17 11:36:05;;;;;;;25.15;18.27;;;;;;;;;;5015149;28;20110;-79
2022/10/17 11:38:31;;;;;;;25.42;18.58;;;;;;;;;;5015198;28;20018;-79
2022/10/17 11:41:01;;;;;;;24.80;19.50;;;;;;;;;;5022246;28;20030;-79
2022/10/17 11:43:49;;;;;;;22.77;18.13;;;;;;;;;;5012867;28;20061;-79
2022/10/17 11:46:17;;;;;;;22.60;17.95;;;;;;;;;;5013305;28;20060;-79
2022/10/17 11:48:50;;;;;;;24.48;18.70;;;;;;;;;;5013782;28;20104;-77
2022/10/17 11:51:16;;;;;;;24.38;18.15;;;;;;;;;;5009729;28;20441;-78
2022/10/17 11:53:46;;;;;;;25.10;17.70;;;;;;;;;;5015260;28;20026;-79
2022/10/17 11:56:14;;;;;;;23.30;18.08;;;;;;;;;;5033016;28;20075;-78
2022/10/17 11:58:40;;;;;;;23.08;17.15;;;;;;;;;;5029819;28;20049;-78
2022/10/17 12:01:25;;;;;;;20.60;16.58;;;;;;;;;;5032336;28;20072;-79
2022/10/17 12:03:51;;;;;;;25.15;18.48;;;;;;;;;;5012601;28;20026;-78
2022/10/17 12:06:17;;;;;;;23.15;17.13;;;;;;;;;;5012583;28;20022;-78
2022/10/17 12:08:51;;;;;;;21.02;18.02;;;;;;;;;;5012044;28;20049;-77
2022/10/17 12:11:36;;;;;;;20.75;17.45;;;;;;;;;;5008083;28;20124;-78
2022/10/17 12:14:03;;;;;;;23.40;18.35;;;;;;;;;;5012502;28;20037;-78
2022/10/17 12:16:29;;;;;;;21.00;17.30;;;;;;;;;;5012480;28;20029;-77
2022/10/17 12:19:05;;;;;;;22.50;17.25;;;;;;;;;;5012428;28;20037;-78
2022/10/17 12:21:49;;;;;;;21.05;18.00;;;;;;;;;;5008301;28;20036;-79
2022/10/17 12:24:27;;;;;;;24.17;17.25;;;;;;;;;;5006061;28;20041;-78
2022/10/17 12:26:53;;;;;;;21.27;16.80;;;;;;;;;;5014754;28;20021;-79
2022/10/17 12:29:28;;;;;;;21.95;16.35;;;;;;;;;;5028601;28;20017;-79
2022/10/17 12:31:54;;;;;;;18.50;15.30;;;;;;;;;;5012526;28;20469;-80
2022/10/17 12:34:23;;;;;;;20.25;16.63;;;;;;;;;;5012365;28;20460;-80
2022/10/17 12:36:49;;;;;;;22.05;16.73;;;;;;;;;;5011996;28;20022;-77
2022/10/17 12:39:21;;;;;;;24.83;15.80;;;;;;;;;;5005691;28;20169;-78
2022/10/17 12:41:51;;;;;;;23.50;15.90;;;;;;;;;;5013866;28;20025;-79
2022/10/17 12:44:20;;;;;;;20.37;15.87;;;;;;;;;;5005638;28;20462;-78
2022/10/17 12:46:46;;;;;;;23.83;16.30;;;;;;;;;;5027272;28;20660;-78
2022/10/17 12:49:36;;;;;;;20.55;15.10;;;;;;;;;;5013356;28;20404;-78
2022/10/17 12:52:21;;;;;;;20.42;15.27;;;;;;;;;;5015832;28;20544;-78
2022/10/17 12:54:50;;;;;;;22.63;15.35;;;;;;;;;;5015799;28;20112;-79
2022/10/17 12:57:42;;;;;;;20.90;15.20;;;;;;;;;;5015351;28;20364;-77
2022/10/17 13:00:15;;;;;;;18.88;14.27;;;;;;;;;;4988227;28;20057;-79
2022/10/17 13:02:41;;;;;;;24.65;14.45;;;;;;;;;;5015682;28;20030;-78
2022/10/17 13:05:11;;;;;;;17.50;14.43;;;;;;;;;;5015669;28;20022;-77
2022/10/17 13:07:40;;;;;;;19.10;14.43;;;;;;;;;;5023641;28;20488;-76
2022/10/17 13:10:07;;;;;;;18.30;14.60;;;;;;;;;;5015570;28;20029;-77
2022/10/17 13:12:36;;;;;;;21.52;13.65;;;;;;;;;;5016070;28;20365;-78
2022/10/17 13:15:04;;;;;;;17.08;13.50;;;;;;;;;;5016809;28;20431;-78
2022/10/17 13:17:30;;;;;;;17.83;14.55;;;;;;;;;;5017679;28;20030;-81
2022/10/17 13:19:56;;;;;;;19.08;14.05;;;;;;;;;;5029679;28;20026;-80
2022/10/17 13:22:27;;;;;;;17.67;14.25;;;;;;;;;;5015639;28;20389;-78
2022/10/17 13:25:05;;;;;;;17.50;13.50;;;;;;;;;;5017841;28;20026;-80
2022/10/17 13:27:32;;;;;;;20.40;15.50;;;;;;;;;;5020714;28;20310;-78
2022/10/17 13:30:00;;;;;;;20.27;15.18;;;;;;;;;;5035227;28;20017;-79
2022/10/17 13:32:34;;;;;;;17.60;14.52;;;;;;;;;;5051349;23;20145;-78
2022/10/17 13:35:07;;;;;;;22.38;14.93;;;;;;;;;;5015842;28;20121;-80
2022/10/17 13:37:34;;;;;;;17.90;14.63;;;;;;;;;;5016589;28;20112;-79
2022/10/17 13:40:02;;;;;;;18.58;14.93;;;;;;;;;;4999699;28;20361;-79
2022/10/17 13:42:36;;;;;;;18.33;15.65;;;;;;;;;;5014822;28;20153;-78
2022/10/17 13:45:03;;;;;;;17.98;14.73;;;;;;;;;;5014457;28;20045;-78
2022/10/17 13:47:36;;;;;;;19.00;15.63;;;;;;;;;;5014253;28;20022;-78
2022/10/17 13:50:02;;;;;;;19.98;14.95;;;;;;;;;;5014371;28;20018;-79
2022/10/17 13:52:29;;;;;;;22.52;16.33;;;;;;;;;;5015505;28;20029;-78
2022/10/17 13:54:55;;;;;;;21.40;15.40;;;;;;;;;;5015249;28;20041;-78
2022/10/17 13:57:29;;;;;;;19.50;16.95;;;;;;;;;;5015073;28;20064;-79
2022/10/17 13:59:59;;;;;;;20.30;15.32;;;;;;;;;;5016026;28;20052;-77
2022/10/17 14:02:26;;;;;;;24.40;17.23;;;;;;;;;;5014532;28;20057;-77
2022/10/17 14:04:59;;;;;;;19.52;16.42;;;;;;;;;;5014160;28;20021;-77
2022/10/17 14:07:27;;;;;;;19.17;15.13;;;;;;;;;;5014123;28;20026;-78
2022/10/17 14:09:53;;;;;;;19.17;16.23;;;;;;;;;;5013735;28;20057;-78
2022/10/17 14:12:19;;;;;;;21.10;16.02;;;;;;;;;;5011374;28;20014;-78
2022/10/17 14:14:54;;;;;;;19.05;16.40;;;;;;;;;;5013982;28;20492;-78
2022/10/17 14:17:23;;;;;;;20.17;16.77;;;;;;;;;;5011682;28;20072;-79
2022/10/17 14:20:10;;;;;;;18.42;16.10;;;;;;;;;;5017102;28;20026;-79
2022/10/17 14:22:37;;;;;;;20.02;17.02;;;;;;;;;;5014913;28;20377;-79
2022/10/17 14:25:06;;;;;;;22.05;17.52;;;;;;;;;;5009990;28;20033;-79
2022/10/17 14:27:41;;;;;;;23.15;17.20;;;;;;;;;;5014895;28;20056;-79
2022/10/17 14:30:27;;;;;;;21.80;18.25;;;;;;;;;;5014427;28;20022;-79
2022/10/17 14:32:56;;;;;;;25.13;18.30;;;;;;;;;;5004049;28;20052;-79
2022/10/17 14:35:22;;;;;;;24.17;18.63;;;;;;;;;;5023984;28;20022;-79
2022/10/17 14:37:50;;;;;;;23.02;17.90;;;;;;;;;;5015938;28;20038;-79
2022/10/17 14:40:18;;;;;;;28.35;18.75;;;;;;;;;;5017005;28;20089;-79
2022/10/17 14:42:44;;;;;;;22.73;17.55;;;;;;;;;;5023458;28;20025;-78
2022/10/17 14:45:17;;;;;;;23.98;18.85;;;;;;;;;;5016415;28;20025;-79
2022/10/17 14:47:48;;;;;;;22.08;18.05;;;;;;;;;;5015988;28;20025;-78
2022/10/17 14:50:14;;;;;;;28.30;20.02;;;;;;;;;;5017601;28;20018;-78
2022/10/17 14:52:42;;;;;;;25.25;18.50;;;;;;;;;;5017468;28;20033;-78
2022/10/17 14:55:23;;;;;;;23.67;18.95;;;;;;;;;;5014433;28;20152;-78
2022/10/17 14:57:49;;;;;;;27.60;18.15;;;;;;;;;;5016372;28;20492;-79
2022/10/17 15:00:16;;;;;;;25.33;19.75;;;;;;;;;;5018145;28;20495;-79